createdAt,value
2022-08-22T00:01:21.266Z,79.61
2022-08-22T00:02:42.143Z,66.78
2022-08-22T00:02:49.119Z,71.50
2022-08-22T00:02:49.988Z,77.02
2022-08-22T00:02:58.750Z,77.74
2022-08-22T00:03:11.931Z,77.74
2022-08-22T00:03:58.422Z,79.96
2022-08-22T00:06:41.492Z,79.43
2022-08-22T00:09:29.661Z,79.48
2022-08-22T00:12:17.060Z,79.99
2022-08-22T00:14:56.654Z,80.08
2022-08-22T00:17:41.691Z,80.16
2022-08-22T00:20:17.219Z,80.70
2022-08-22T00:22:53.586Z,80.90
2022-08-22T00:25:42.135Z,80.87
2022-08-22T00:28:17.202Z,80.84
2022-08-22T00:30:58.435Z,81.30
2022-08-22T00:33:36.660Z,80.90
2022-08-22T00:36:16.577Z,80.90
2022-08-22T00:38:52.271Z,81.21
2022-08-22T00:41:42.610Z,81.10
2022-08-22T00:45:00.218Z,80.96
2022-08-22T00:47:58.307Z,81.54
2022-08-22T00:50:46.428Z,81.66
2022-08-22T00:53:41.229Z,81.61
2022-08-22T00:56:33.460Z,81.96
2022-08-22T00:59:23.093Z,81.86
2022-08-22T01:02:01.843Z,82.03
2022-08-22T01:04:49.703Z,81.87
2022-08-22T01:07:38.211Z,82.20
2022-08-22T01:10:24.791Z,82.32
2022-08-22T01:13:14.921Z,82.31
2022-08-22T01:15:46.301Z,82.34
2022-08-22T01:18:36.593Z,82.74
2022-08-22T01:21:53.984Z,82.86
2022-08-22T01:25:22.626Z,82.92
2022-08-22T01:28:36.425Z,82.98
2022-08-22T01:31:51.693Z,83.11
2022-08-22T01:35:00.949Z,83.52
2022-08-22T01:37:48.374Z,83.42
2022-08-22T01:40:57.191Z,83.51
2022-08-22T01:44:00.155Z,83.65
2022-08-22T01:46:37.507Z,84.40
2022-08-22T01:49:14.874Z,84.06
2022-08-22T01:51:51.834Z,83.95
2022-08-22T01:54:36.166Z,83.97
2022-08-22T01:57:09.000Z,83.69
2022-08-22T01:59:43.961Z,83.91
2022-08-22T02:02:33.224Z,83.75
2022-08-22T02:05:08.092Z,83.64
2022-08-22T02:07:50.081Z,83.64
2022-08-22T02:10:26.916Z,83.58
2022-08-22T02:13:06.965Z,83.50
2022-08-22T02:15:53.072Z,83.57
2022-08-22T02:18:31.186Z,84.07
2022-08-22T02:21:07.283Z,84.66
2022-08-22T02:23:52.245Z,84.77
2022-08-22T02:26:30.543Z,85.25
2022-08-22T02:29:07.390Z,85.38
2022-08-22T02:31:44.666Z,85.41
2022-08-22T02:34:29.657Z,85.54
2022-08-22T02:37:10.270Z,85.93
2022-08-22T02:39:46.974Z,86.03
2022-08-22T02:42:27.932Z,85.94
2022-08-22T02:45:13.811Z,85.95
2022-08-22T02:47:54.681Z,86.31
2022-08-22T02:50:35.026Z,86.47
2022-08-22T02:53:09.604Z,86.79
2022-08-22T02:55:49.289Z,86.28
2022-08-22T02:58:27.517Z,86.33
2022-08-22T03:01:26.102Z,86.44
2022-08-22T03:04:26.885Z,86.69
2022-08-22T03:07:12.468Z,86.70
2022-08-22T03:09:49.591Z,86.64
2022-08-22T03:12:32.179Z,86.47
2022-08-22T03:15:08.923Z,86.77
2022-08-22T03:17:48.204Z,86.53
2022-08-22T03:20:36.520Z,86.60
2022-08-22T03:23:12.934Z,86.58
2022-08-22T03:25:50.313Z,86.80
2022-08-22T03:28:26.533Z,87.01
2022-08-22T03:31:01.260Z,86.90
2022-08-22T03:33:32.646Z,86.86
2022-08-22T03:36:11.516Z,87.04
2022-08-22T03:38:50.258Z,86.70
2022-08-22T03:42:03.846Z,86.83
2022-08-22T03:45:04.095Z,86.76
2022-08-22T03:48:05.193Z,86.32
2022-08-22T03:51:05.976Z,86.45
2022-08-22T03:53:56.773Z,86.68
2022-08-22T03:56:45.577Z,86.85
2022-08-22T03:59:49.926Z,86.31
2022-08-22T04:02:43.209Z,86.45
2022-08-22T04:05:41.367Z,86.42
2022-08-22T04:08:51.362Z,86.35
2022-08-22T04:11:40.127Z,86.51
2022-08-22T04:14:29.026Z,86.07
2022-08-22T04:17:27.501Z,86.29
2022-08-22T04:20:34.987Z,86.52
2022-08-22T04:23:32.396Z,86.54
2022-08-22T04:26:12.142Z,86.58
2022-08-22T04:28:49.763Z,86.67
2022-08-22T04:31:26.138Z,86.92
2022-08-22T04:34:03.060Z,87.18
2022-08-22T04:36:39.641Z,87.15
2022-08-22T04:39:18.871Z,86.97
2022-08-22T04:41:53.350Z,87.19
2022-08-22T04:44:28.119Z,87.54
2022-08-22T04:47:08.228Z,87.53
2022-08-22T04:49:41.591Z,87.43
2022-08-22T04:52:29.410Z,87.81
2022-08-22T04:55:09.649Z,87.58
2022-08-22T04:57:51.758Z,87.61
2022-08-22T05:00:20.863Z,87.90
2022-08-22T05:02:53.879Z,87.81
2022-08-22T05:05:28.155Z,88.01
2022-08-22T05:07:59.773Z,88.21
2022-08-22T05:10:34.009Z,88.59
2022-08-22T05:13:07.444Z,88.51
2022-08-22T05:15:39.729Z,88.33
2022-08-22T05:18:15.847Z,88.19
2022-08-22T05:20:49.356Z,88.05
2022-08-22T05:23:21.707Z,88.41
2022-08-22T05:25:55.813Z,88.25
2022-08-22T05:28:33.782Z,88.26
2022-08-22T05:31:08.069Z,88.35
2022-08-22T05:33:42.136Z,88.13
2022-08-22T05:36:15.969Z,88.39
2022-08-22T05:38:50.427Z,88.09
2022-08-22T05:41:23.783Z,88.19
2022-08-22T05:43:54.929Z,87.96
2022-08-22T05:46:27.139Z,88.03
2022-08-22T05:48:59.964Z,87.79
2022-08-22T05:51:39.053Z,87.71
2022-08-22T05:54:14.803Z,88.17
2022-08-22T05:56:53.301Z,88.00
2022-08-22T05:59:27.318Z,88.31
2022-08-22T06:02:05.290Z,88.09
2022-08-22T06:04:50.098Z,87.91
2022-08-22T06:07:25.295Z,87.97
2022-08-22T06:10:13.654Z,87.98
2022-08-22T06:12:53.485Z,87.95
2022-08-22T06:15:28.929Z,88.11
2022-08-22T06:18:01.972Z,87.92
2022-08-22T06:20:36.161Z,88.09
2022-08-22T06:23:09.122Z,88.20
2022-08-22T06:25:43.099Z,88.22
2022-08-22T06:28:17.781Z,88.00
2022-08-22T06:30:47.755Z,88.26
2022-08-22T06:33:23.173Z,88.67
2022-08-22T06:36:13.730Z,88.39
2022-08-22T06:38:58.871Z,88.84
2022-08-22T06:41:35.077Z,88.95
2022-08-22T06:44:06.759Z,88.90
2022-08-22T06:46:38.916Z,87.97
2022-08-22T06:49:10.616Z,85.20
2022-08-22T06:51:40.513Z,86.16
2022-08-22T06:54:20.519Z,84.20
2022-08-22T06:56:55.326Z,84.37
2022-08-22T06:59:27.186Z,83.38
2022-08-22T07:02:03.478Z,81.14
2022-08-22T07:04:33.091Z,80.81
2022-08-22T07:07:03.403Z,78.92
2022-08-22T07:09:37.351Z,78.70
2022-08-22T07:12:18.392Z,77.92
2022-08-22T07:14:50.757Z,77.60
2022-08-22T07:17:23.600Z,77.17
2022-08-22T07:20:00.604Z,76.97
2022-08-22T07:22:33.150Z,76.11
2022-08-22T07:25:08.953Z,73.69
2022-08-22T07:27:56.173Z,73.53
2022-08-22T07:30:35.782Z,73.42
2022-08-22T07:33:25.995Z,73.77
2022-08-22T07:36:01.715Z,71.06
2022-08-22T07:38:42.752Z,70.96
2022-08-22T07:41:18.741Z,67.54
2022-08-22T07:43:51.658Z,68.05
2022-08-22T07:46:30.322Z,71.07
2022-08-22T07:49:09.534Z,71.66
2022-08-22T07:51:44.677Z,71.49
2022-08-22T07:54:17.021Z,67.93
2022-08-22T07:57:03.724Z,66.57
2022-08-22T07:59:36.130Z,68.73
2022-08-22T08:02:13.151Z,68.45
2022-08-22T08:04:43.566Z,67.91
2022-08-22T08:07:17.225Z,68.28
2022-08-22T08:09:51.727Z,66.62
2022-08-22T08:12:31.763Z,65.73
2022-08-22T08:15:04.184Z,66.50
2022-08-22T08:17:37.045Z,64.38
2022-08-22T08:20:11.179Z,64.91
2022-08-22T08:22:44.077Z,63.64
2022-08-22T08:25:17.216Z,63.14
2022-08-22T08:28:04.824Z,65.11
2022-08-22T08:30:38.536Z,64.48
2022-08-22T08:33:26.215Z,66.19
2022-08-22T08:36:03.212Z,64.33
2022-08-22T08:38:41.596Z,62.42
2022-08-22T08:41:49.100Z,62.04
2022-08-22T08:44:39.442Z,60.59
2022-08-22T08:47:24.591Z,59.53
2022-08-22T08:50:20.190Z,58.28
2022-08-22T08:53:17.574Z,61.39
2022-08-22T08:55:52.396Z,60.94
2022-08-22T08:58:35.380Z,60.24
2022-08-22T09:01:27.707Z,59.93
2022-08-22T09:04:19.891Z,55.00
2022-08-22T09:07:06.603Z,55.93
2022-08-22T09:09:56.931Z,55.75
2022-08-22T09:12:54.284Z,57.48
2022-08-22T09:15:58.631Z,56.44
2022-08-22T09:19:02.682Z,55.32
2022-08-22T09:22:14.613Z,53.55
2022-08-22T09:25:06.108Z,50.69
2022-08-22T09:27:39.300Z,49.19
2022-08-22T09:30:12.382Z,48.00
2022-08-22T09:32:58.249Z,50.91
2022-08-22T09:35:39.754Z,49.42
2022-08-22T09:38:31.194Z,48.32
2022-08-22T09:41:12.675Z,50.54
2022-08-22T09:43:48.907Z,51.02
2022-08-22T09:46:29.559Z,48.54
2022-08-22T09:49:06.688Z,50.10
2022-08-22T09:51:46.118Z,50.96
2022-08-22T09:54:22.920Z,51.98
2022-08-22T09:57:13.877Z,48.43
2022-08-22T09:59:58.202Z,51.54
2022-08-22T10:02:34.681Z,52.26
2022-08-22T10:05:40.912Z,51.42
2022-08-22T10:08:20.069Z,48.46
2022-08-22T10:11:11.374Z,48.31
2022-08-22T10:13:57.729Z,47.23
2022-08-22T10:17:04.593Z,49.21
2022-08-22T10:19:41.289Z,49.34
2022-08-22T10:22:34.219Z,49.37
2022-08-22T10:25:24.668Z,46.38
2022-08-22T10:28:10.621Z,45.66
2022-08-22T10:30:51.015Z,47.59
2022-08-22T10:33:29.873Z,48.59
2022-08-22T10:36:05.491Z,51.02
2022-08-22T10:38:43.986Z,52.38
2022-08-22T10:41:29.272Z,53.43
2022-08-22T10:44:04.469Z,50.66
2022-08-22T10:46:39.025Z,52.31
2022-08-22T10:49:20.556Z,48.26
2022-08-22T10:51:58.227Z,50.35
2022-08-22T10:54:39.504Z,47.68
2022-08-22T10:57:22.678Z,47.00
2022-08-22T11:00:02.904Z,48.22
2022-08-22T11:02:47.128Z,46.46
2022-08-22T11:05:28.475Z,44.15
2022-08-22T11:08:11.837Z,45.85
2022-08-22T11:10:52.293Z,45.93
2022-08-22T11:13:31.963Z,44.15
2022-08-22T11:16:09.170Z,43.28
2022-08-22T11:19:02.065Z,42.99
2022-08-22T11:21:46.254Z,41.90
2022-08-22T11:24:55.980Z,42.39
2022-08-22T11:27:38.085Z,41.78
2022-08-22T11:30:18.402Z,41.50
2022-08-22T11:33:14.666Z,41.36
2022-08-22T11:35:48.759Z,42.18
2022-08-22T11:38:32.690Z,40.73
2022-08-22T11:41:07.393Z,41.39
2022-08-22T11:43:52.034Z,41.89
2022-08-22T11:46:29.221Z,42.78
2022-08-22T11:49:16.063Z,43.45
2022-08-22T11:52:09.682Z,43.70
2022-08-22T11:55:09.300Z,44.45
2022-08-22T11:57:44.750Z,45.53
2022-08-22T12:00:33.415Z,42.58
2022-08-22T12:03:34.795Z,41.91
2022-08-22T12:06:09.678Z,42.37
2022-08-22T12:09:20.588Z,43.46
2022-08-22T12:12:20.197Z,43.42
2022-08-22T12:14:58.466Z,43.99
2022-08-22T12:18:12.738Z,43.51
2022-08-22T12:21:00.945Z,44.47
2022-08-22T12:23:55.855Z,42.42
2022-08-22T12:26:34.806Z,41.22
2022-08-22T12:29:23.340Z,43.14
2022-08-22T12:32:34.807Z,42.76
2022-08-22T12:35:30.252Z,40.88
2022-08-22T12:38:29.091Z,40.07
2022-08-22T12:41:14.382Z,42.18
2022-08-22T12:44:05.508Z,42.03
2022-08-22T12:46:49.376Z,41.96
2022-08-22T12:49:34.096Z,41.66
2022-08-22T12:52:19.751Z,41.07
2022-08-22T12:55:24.841Z,39.00
2022-08-22T12:58:08.101Z,40.28
2022-08-22T13:00:38.692Z,37.95
2022-08-22T13:03:11.370Z,39.12
2022-08-22T13:05:46.115Z,39.36
2022-08-22T13:08:32.185Z,37.50
2022-08-22T13:11:09.926Z,39.59
2022-08-22T13:13:56.247Z,39.52
2022-08-22T13:16:36.511Z,38.58
2022-08-22T13:19:13.478Z,38.84
2022-08-22T13:21:48.225Z,39.31
2022-08-22T13:24:38.592Z,39.43
2022-08-22T13:27:15.016Z,40.24
2022-08-22T13:29:52.609Z,39.02
2022-08-22T13:32:26.623Z,40.76
2022-08-22T13:34:59.448Z,41.21
2022-08-22T13:37:36.231Z,40.53
2022-08-22T13:40:11.526Z,40.02
2022-08-22T13:42:48.270Z,39.89
2022-08-22T13:45:25.593Z,39.56
2022-08-22T13:47:58.496Z,40.55
2022-08-22T13:50:30.120Z,38.73
2022-08-22T13:53:30.852Z,38.95
2022-08-22T13:56:07.582Z,39.86
2022-08-22T13:58:50.470Z,38.00
2022-08-22T14:01:34.793Z,36.58
2022-08-22T14:04:33.437Z,38.95
2022-08-22T14:07:25.471Z,38.21
2022-08-22T14:09:59.496Z,39.10
2022-08-22T14:12:50.066Z,37.72
2022-08-22T14:15:26.120Z,37.90
2022-08-22T14:18:11.837Z,39.16
2022-08-22T14:20:43.348Z,37.96
2022-08-22T14:23:17.638Z,37.92
2022-08-22T14:25:47.224Z,38.00
2022-08-22T14:28:27.450Z,37.46
2022-08-22T14:31:03.653Z,37.97
2022-08-22T14:33:39.969Z,38.87
2022-08-22T14:36:17.204Z,38.28
2022-08-22T14:38:51.928Z,38.48
2022-08-22T14:41:52.429Z,39.75
2022-08-22T14:44:26.535Z,39.13
2022-08-22T14:46:58.610Z,38.91
2022-08-22T14:49:38.261Z,38.14
2022-08-22T14:52:10.789Z,36.87
2022-08-22T14:54:51.145Z,37.23
2022-08-22T14:57:22.259Z,37.56
2022-08-22T14:59:54.096Z,37.08
2022-08-22T15:02:29.359Z,35.87
2022-08-22T15:05:13.106Z,36.83
2022-08-22T15:07:55.611Z,36.76
2022-08-22T15:10:31.729Z,36.67
2022-08-22T15:13:08.092Z,38.36
2022-08-22T15:15:53.416Z,38.79
2022-08-22T15:18:36.098Z,39.80
2022-08-22T15:21:10.345Z,40.45
2022-08-22T15:23:46.782Z,41.93
2022-08-22T15:26:25.530Z,41.06
2022-08-22T15:28:59.371Z,41.07
2022-08-22T15:31:28.501Z,42.14
2022-08-22T15:34:12.312Z,42.15
2022-08-22T15:37:09.073Z,42.60
2022-08-22T15:40:00.273Z,42.90
2022-08-22T15:42:35.876Z,42.12
2022-08-22T15:45:07.169Z,41.75
2022-08-22T15:47:40.267Z,40.59
2022-08-22T15:50:28.546Z,41.07
2022-08-22T15:53:14.545Z,40.84
2022-08-22T15:56:28.197Z,42.35
2022-08-22T15:59:29.654Z,41.62
2022-08-22T16:02:04.828Z,41.90
2022-08-22T16:04:47.279Z,42.67
2022-08-22T16:07:42.075Z,42.98
2022-08-22T16:10:29.339Z,42.73
2022-08-22T16:13:16.507Z,44.43
2022-08-22T16:16:01.896Z,42.26
2022-08-22T16:19:08.312Z,42.69
2022-08-22T16:22:06.674Z,43.08
2022-08-22T16:24:58.304Z,41.39
2022-08-22T16:27:30.591Z,41.99
2022-08-22T16:30:07.266Z,42.40
2022-08-22T16:32:37.602Z,42.57
2022-08-22T16:35:07.157Z,43.60
2022-08-22T16:37:48.051Z,42.86
2022-08-22T16:40:24.050Z,43.26
2022-08-22T16:43:14.461Z,43.72
2022-08-22T16:45:46.179Z,43.14
2022-08-22T16:48:24.734Z,44.74
2022-08-22T16:51:05.189Z,45.41
2022-08-22T16:54:10.610Z,44.75
2022-08-22T16:57:04.227Z,45.85
2022-08-22T16:59:47.662Z,46.08
2022-08-22T17:02:43.204Z,45.67
2022-08-22T17:05:20.799Z,46.35
2022-08-22T17:08:02.482Z,47.12
2022-08-22T17:10:49.231Z,47.41
2022-08-22T17:13:38.258Z,47.79
2022-08-22T17:16:39.357Z,48.46
2022-08-22T17:19:24.230Z,48.63
2022-08-22T17:21:58.860Z,49.63
2022-08-22T17:24:37.619Z,49.54
2022-08-22T17:27:22.301Z,50.93
2022-08-22T17:30:02.140Z,51.33
2022-08-22T17:32:42.750Z,51.96
2022-08-22T17:35:25.933Z,52.33
2022-08-22T17:38:08.640Z,53.01
2022-08-22T17:40:41.473Z,53.48
2022-08-22T17:43:49.228Z,53.46
2022-08-22T17:46:35.365Z,52.88
2022-08-22T17:49:20.393Z,53.25
2022-08-22T17:52:08.556Z,54.00
2022-08-22T17:54:41.670Z,54.98
2022-08-22T17:57:14.664Z,55.32
2022-08-22T17:59:50.792Z,55.45
2022-08-22T18:02:26.544Z,55.28
2022-08-22T18:05:06.947Z,56.09
2022-08-22T18:08:00.878Z,57.29
2022-08-22T18:10:39.017Z,57.62
2022-08-22T18:13:13.336Z,58.06
2022-08-22T18:15:48.490Z,58.46
2022-08-22T18:18:31.225Z,58.82
2022-08-22T18:21:08.235Z,58.69
2022-08-22T18:23:42.444Z,58.50
2022-08-22T18:26:25.658Z,58.96
2022-08-22T18:29:08.406Z,59.50
2022-08-22T18:31:49.396Z,59.64
2022-08-22T18:34:26.405Z,60.04
2022-08-22T18:37:04.831Z,60.35
2022-08-22T18:39:47.091Z,61.17
2022-08-22T18:42:28.145Z,61.58
2022-08-22T18:44:59.303Z,61.48
2022-08-22T18:47:32.105Z,61.59
2022-08-22T18:50:03.759Z,61.89
2022-08-22T18:52:42.869Z,62.10
2022-08-22T18:55:28.194Z,62.41
2022-08-22T18:58:21.931Z,62.27
2022-08-22T19:01:10.664Z,62.99
2022-08-22T19:04:00.437Z,63.31
2022-08-22T19:06:47.807Z,63.43
2022-08-22T19:09:55.985Z,63.85
2022-08-22T19:12:51.403Z,63.67
2022-08-22T19:15:35.261Z,64.01
2022-08-22T19:18:19.405Z,64.19
2022-08-22T19:21:47.277Z,64.38
2022-08-22T19:24:57.579Z,64.60
2022-08-22T19:27:31.557Z,64.52
2022-08-22T19:30:03.242Z,65.14
2022-08-22T19:33:00.379Z,65.70
2022-08-22T19:35:40.140Z,65.89
2022-08-22T19:38:10.734Z,66.34
2022-08-22T19:40:55.554Z,66.55
2022-08-22T19:43:35.927Z,66.79
2022-08-22T19:46:07.802Z,66.88
2022-08-22T19:48:46.831Z,66.99
2022-08-22T19:51:29.307Z,67.14
2022-08-22T19:54:21.474Z,67.49
2022-08-22T19:57:07.038Z,67.60
2022-08-22T19:59:59.588Z,67.88
2022-08-22T20:02:37.758Z,68.83
2022-08-22T20:05:28.748Z,68.79
2022-08-22T20:08:15.128Z,69.40
2022-08-22T20:10:55.130Z,69.63
2022-08-22T20:13:26.564Z,69.90
2022-08-22T20:16:07.887Z,69.74
2022-08-22T20:19:16.609Z,70.01
2022-08-22T20:21:53.876Z,69.82
2022-08-22T20:24:30.189Z,70.04
2022-08-22T20:27:13.990Z,70.17
2022-08-22T20:29:49.514Z,69.98
2022-08-22T20:32:23.451Z,70.00
2022-08-22T20:34:57.037Z,69.85
2022-08-22T20:38:02.860Z,70.13
2022-08-22T20:40:55.004Z,70.15
2022-08-22T20:43:29.615Z,70.32
2022-08-22T20:46:22.035Z,70.49
2022-08-22T20:48:57.318Z,70.67
2022-08-22T20:51:32.575Z,70.31
2022-08-22T20:54:10.345Z,70.95
2022-08-22T20:56:53.475Z,70.70
2022-08-22T20:59:30.201Z,70.43
2022-08-22T21:02:09.934Z,70.30
2022-08-22T21:04:53.901Z,70.09
2022-08-22T21:07:27.563Z,70.37
2022-08-22T21:10:22.325Z,70.22
2022-08-22T21:13:06.396Z,69.91
2022-08-22T21:15:38.635Z,69.74
2022-08-22T21:18:12.241Z,69.73
2022-08-22T21:20:42.873Z,69.04
2022-08-22T21:23:20.810Z,69.33
2022-08-22T21:25:58.502Z,69.49
2022-08-22T21:28:31.205Z,69.14
2022-08-22T21:31:01.807Z,69.10
2022-08-22T21:33:30.730Z,68.87
2022-08-22T21:36:01.775Z,69.08
2022-08-22T21:38:30.956Z,68.88
2022-08-22T21:41:05.476Z,69.03
2022-08-22T21:43:39.143Z,69.18
2022-08-22T21:46:09.484Z,69.20
2022-08-22T21:48:43.865Z,68.69
2022-08-22T21:51:31.821Z,69.36
2022-08-22T21:54:20.331Z,69.64
2022-08-22T21:56:54.133Z,69.94
2022-08-22T21:59:26.541Z,69.93
2022-08-22T22:02:36.581Z,70.18
2022-08-22T22:05:09.357Z,69.72
2022-08-22T22:07:41.330Z,70.33
2022-08-22T22:10:13.207Z,70.50
2022-08-22T22:12:44.283Z,70.66
2022-08-22T22:15:18.231Z,71.02
2022-08-22T22:17:47.554Z,71.07
2022-08-22T22:20:17.685Z,71.26
2022-08-22T22:22:49.042Z,71.82
2022-08-22T22:25:41.323Z,71.98
2022-08-22T22:28:11.425Z,72.31
2022-08-22T22:30:41.225Z,72.74
2022-08-22T22:33:10.384Z,72.68
2022-08-22T22:35:41.750Z,72.95
2022-08-22T22:38:15.107Z,73.27
2022-08-22T22:40:46.228Z,73.63
2022-08-22T22:43:15.595Z,73.96
2022-08-22T22:45:44.833Z,74.19
2022-08-22T22:48:23.783Z,74.36
2022-08-22T22:50:54.846Z,74.32
2022-08-22T22:53:33.880Z,74.50
2022-08-22T22:56:10.798Z,74.68
2022-08-22T22:58:41.412Z,74.59
2022-08-22T23:01:14.346Z,74.48
2022-08-22T23:03:45.044Z,74.58
2022-08-22T23:06:15.478Z,74.66
2022-08-22T23:08:47.392Z,74.56
2022-08-22T23:11:19.350Z,74.63
2022-08-22T23:13:49.823Z,74.60
2022-08-22T23:16:23.996Z,74.53
2022-08-22T23:18:54.063Z,74.60
2022-08-22T23:21:26.750Z,74.42
2022-08-22T23:23:58.843Z,74.36
2022-08-22T23:26:28.324Z,74.71
2022-08-22T23:28:58.566Z,74.63
2022-08-22T23:31:33.985Z,74.54
2022-08-22T23:34:08.085Z,74.50
2022-08-22T23:36:41.248Z,74.65
2022-08-22T23:39:12.607Z,74.56
2022-08-22T23:41:43.084Z,74.64
2022-08-22T23:44:15.253Z,74.87
2022-08-22T23:46:47.408Z,75.10
2022-08-22T23:49:17.129Z,75.46
2022-08-22T23:51:47.739Z,75.69
2022-08-22T23:54:19.466Z,75.69
2022-08-22T23:56:50.736Z,76.16
2022-08-22T23:59:22.696Z,76.13
